sensor_id;sensor_type;location;lat;lon;timestamp;pressure;altitude;pressure_sealevel;temperature
24740;BMP280;45234;48.148;17.128;2023-03-01T00:01:17;101030.81;;;2.24
24740;BMP280;45234;48.148;17.128;2023-03-01T00:03:44;101033.47;;;2.22
24740;BMP280;45234;48.148;17.128;2023-03-01T00:06:11;101032.63;;;2.22
24740;BMP280;45234;48.148;17.128;2023-03-01T00:08:39;101028.03;;;2.27
24740;BMP280;45234;48.148;17.128;2023-03-01T00:11:19;101023.88;;;2.37
24740;BMP280;45234;48.148;17.128;2023-03-01T00:13:47;101029.06;;;2.48
24740;BMP280;45234;48.148;17.128;2023-03-01T00:16:17;101032.91;;;2.54
24740;BMP280;45234;48.148;17.128;2023-03-01T00:18:46;101030.84;;;2.59
24740;BMP280;45234;48.148;17.128;2023-03-01T00:21:13;101033.75;;;2.65
24740;BMP280;45234;48.148;17.128;2023-03-01T00:23:41;101038.00;;;2.78
24740;BMP280;45234;48.148;17.128;2023-03-01T00:26:11;101028.81;;;2.86
24740;BMP280;45234;48.148;17.128;2023-03-01T00:28:40;101037.56;;;2.95
24740;BMP280;45234;48.148;17.128;2023-03-01T00:31:09;101037.25;;;3.00
24740;BMP280;45234;48.148;17.128;2023-03-01T00:33:37;101034.00;;;3.09
24740;BMP280;45234;48.148;17.128;2023-03-01T00:36:04;101039.47;;;3.15
24740;BMP280;45234;48.148;17.128;2023-03-01T00:38:38;101038.94;;;3.23
24740;BMP280;45234;48.148;17.128;2023-03-01T00:41:07;101038.91;;;3.34
24740;BMP280;45234;48.148;17.128;2023-03-01T00:43:34;101032.50;;;3.40
24740;BMP280;45234;48.148;17.128;2023-03-01T00:46:07;101028.09;;;3.42
24740;BMP280;45234;48.148;17.128;2023-03-01T00:48:34;101028.69;;;3.45
24740;BMP280;45234;48.148;17.128;2023-03-01T00:51:07;101033.22;;;3.42
24740;BMP280;45234;48.148;17.128;2023-03-01T00:53:35;101031.00;;;3.37
24740;BMP280;45234;48.148;17.128;2023-03-01T00:56:04;101034.16;;;3.41
24740;BMP280;45234;48.148;17.128;2023-03-01T00:58:31;101033.94;;;3.44
24740;BMP280;45234;48.148;17.128;2023-03-01T01:00:58;101032.53;;;3.51
24740;BMP280;45234;48.148;17.128;2023-03-01T01:03:26;101037.66;;;3.62
24740;BMP280;45234;48.148;17.128;2023-03-01T01:05:53;101024.47;;;3.67
24740;BMP280;45234;48.148;17.128;2023-03-01T01:08:21;101030.78;;;3.74
24740;BMP280;45234;48.148;17.128;2023-03-01T01:10:48;101025.94;;;3.80
24740;BMP280;45234;48.148;17.128;2023-03-01T01:13:16;101021.31;;;3.85
24740;BMP280;45234;48.148;17.128;2023-03-01T01:15:44;101017.22;;;3.94
24740;BMP280;45234;48.148;17.128;2023-03-01T01:18:11;101012.75;;;3.96
24740;BMP280;45234;48.148;17.128;2023-03-01T01:20:38;101013.44;;;3.98
24740;BMP280;45234;48.148;17.128;2023-03-01T01:23:05;101009.56;;;4.04
24740;BMP280;45234;48.148;17.128;2023-03-01T01:25:35;101014.59;;;4.05
24740;BMP280;45234;48.148;17.128;2023-03-01T01:28:03;101008.16;;;4.11
24740;BMP280;45234;48.148;17.128;2023-03-01T01:30:30;101011.31;;;4.14
24740;BMP280;45234;48.148;17.128;2023-03-01T01:32:56;101000.66;;;4.19
24740;BMP280;45234;48.148;17.128;2023-03-01T01:35:23;101003.44;;;4.27
24740;BMP280;45234;48.148;17.128;2023-03-01T01:37:50;100998.06;;;4.30
24740;BMP280;45234;48.148;17.128;2023-03-01T01:40:17;100997.59;;;4.36
24740;BMP280;45234;48.148;17.128;2023-03-01T01:42:44;100999.22;;;4.37
24740;BMP280;45234;48.148;17.128;2023-03-01T01:45:32;101002.94;;;4.33
24740;BMP280;45234;48.148;17.128;2023-03-01T01:48:04;100992.81;;;4.32
24740;BMP280;45234;48.148;17.128;2023-03-01T01:50:34;100991.06;;;4.32
24740;BMP280;45234;48.148;17.128;2023-03-01T01:53:09;100991.31;;;4.29
24740;BMP280;45234;48.148;17.128;2023-03-01T01:55:39;100992.59;;;4.24
24740;BMP280;45234;48.148;17.128;2023-03-01T01:58:09;100980.63;;;4.13
24740;BMP280;45234;48.148;17.128;2023-03-01T02:00:37;100979.00;;;4.12
24740;BMP280;45234;48.148;17.128;2023-03-01T02:03:10;100984.38;;;4.09
24740;BMP280;45234;48.148;17.128;2023-03-01T02:05:43;100989.28;;;4.01
24740;BMP280;45234;48.148;17.128;2023-03-01T02:08:13;100974.84;;;4.00
24740;BMP280;45234;48.148;17.128;2023-03-01T02:10:41;100974.06;;;3.88
24740;BMP280;45234;48.148;17.128;2023-03-01T02:13:09;100973.03;;;3.79
24740;BMP280;45234;48.148;17.128;2023-03-01T02:15:38;100970.03;;;3.74
24740;BMP280;45234;48.148;17.128;2023-03-01T02:18:06;100972.59;;;3.74
24740;BMP280;45234;48.148;17.128;2023-03-01T02:21:05;100974.03;;;3.56
24740;BMP280;45234;48.148;17.128;2023-03-01T02:23:35;100967.72;;;3.60
24740;BMP280;45234;48.148;17.128;2023-03-01T02:26:52;100973.44;;;3.64
24740;BMP280;45234;48.148;17.128;2023-03-01T02:28:54;100965.63;;;3.65
24740;BMP280;45234;48.148;17.128;2023-03-01T02:31:22;100963.63;;;3.69
24740;BMP280;45234;48.148;17.128;2023-03-01T02:34:11;100964.22;;;3.61
24740;BMP280;45234;48.148;17.128;2023-03-01T02:36:53;100960.25;;;3.68
24740;BMP280;45234;48.148;17.128;2023-03-01T02:39:31;100966.69;;;3.63
24740;BMP280;45234;48.148;17.128;2023-03-01T02:41:59;100966.53;;;3.75
24740;BMP280;45234;48.148;17.128;2023-03-01T02:44:27;100961.41;;;3.75
24740;BMP280;45234;48.148;17.128;2023-03-01T02:46:56;100962.78;;;3.79
24740;BMP280;45234;48.148;17.128;2023-03-01T02:49:31;100958.38;;;3.70
24740;BMP280;45234;48.148;17.128;2023-03-01T02:52:26;100948.38;;;3.56
24740;BMP280;45234;48.148;17.128;2023-03-01T02:55:06;100959.00;;;3.51
24740;BMP280;45234;48.148;17.128;2023-03-01T02:57:36;100953.06;;;3.51
24740;BMP280;45234;48.148;17.128;2023-03-01T03:00:13;100949.31;;;3.55
24740;BMP280;45234;48.148;17.128;2023-03-01T03:02:48;100951.88;;;3.66
24740;BMP280;45234;48.148;17.128;2023-03-01T03:05:25;100956.53;;;3.72
24740;BMP280;45234;48.148;17.128;2023-03-01T03:07:55;100957.56;;;3.70
24740;BMP280;45234;48.148;17.128;2023-03-01T03:10:33;100956.06;;;3.67
24740;BMP280;45234;48.148;17.128;2023-03-01T03:13:07;100960.00;;;3.71
24740;BMP280;45234;48.148;17.128;2023-03-01T03:15:35;100961.06;;;3.69
24740;BMP280;45234;48.148;17.128;2023-03-01T03:18:09;100950.94;;;3.67
24740;BMP280;45234;48.148;17.128;2023-03-01T03:20:37;100945.13;;;3.65
24740;BMP280;45234;48.148;17.128;2023-03-01T03:23:05;100947.31;;;3.70
24740;BMP280;45234;48.148;17.128;2023-03-01T03:25:32;100941.81;;;3.74
24740;BMP280;45234;48.148;17.128;2023-03-01T03:28:06;100951.63;;;3.69
24740;BMP280;45234;48.148;17.128;2023-03-01T03:30:38;100952.31;;;3.71
24740;BMP280;45234;48.148;17.128;2023-03-01T03:33:06;100931.94;;;3.70
24740;BMP280;45234;48.148;17.128;2023-03-01T03:36:00;100944.56;;;3.62
24740;BMP280;45234;48.148;17.128;2023-03-01T03:38:26;100942.56;;;3.65
24740;BMP280;45234;48.148;17.128;2023-03-01T03:41:02;100936.50;;;3.66
24740;BMP280;45234;48.148;17.128;2023-03-01T03:43:33;100929.25;;;3.71
24740;BMP280;45234;48.148;17.128;2023-03-01T03:46:02;100929.50;;;3.68
24740;BMP280;45234;48.148;17.128;2023-03-01T03:48:41;100931.81;;;3.71
24740;BMP280;45234;48.148;17.128;2023-03-01T03:51:11;100937.94;;;3.80
24740;BMP280;45234;48.148;17.128;2023-03-01T03:53:38;100931.75;;;3.82
24740;BMP280;45234;48.148;17.128;2023-03-01T03:56:05;100933.63;;;3.80
24740;BMP280;45234;48.148;17.128;2023-03-01T03:58:33;100931.53;;;3.85
24740;BMP280;45234;48.148;17.128;2023-03-01T04:01:00;100929.91;;;3.84
24740;BMP280;45234;48.148;17.128;2023-03-01T04:03:29;100935.59;;;3.88
24740;BMP280;45234;48.148;17.128;2023-03-01T04:05:58;100934.09;;;3.85
24740;BMP280;45234;48.148;17.128;2023-03-01T04:08:26;100928.59;;;3.90
24740;BMP280;45234;48.148;17.128;2023-03-01T04:10:58;100929.19;;;3.94
24740;BMP280;45234;48.148;17.128;2023-03-01T04:13:26;100934.53;;;3.91
24740;BMP280;45234;48.148;17.128;2023-03-01T04:15:54;100925.41;;;3.98
24740;BMP280;45234;48.148;17.128;2023-03-01T04:18:23;100922.97;;;3.96
24740;BMP280;45234;48.148;17.128;2023-03-01T04:20:52;100921.50;;;3.94
24740;BMP280;45234;48.148;17.128;2023-03-01T04:23:22;100921.50;;;3.94
24740;BMP280;45234;48.148;17.128;2023-03-01T04:25:57;100930.81;;;3.95
24740;BMP280;45234;48.148;17.128;2023-03-01T04:28:25;100934.03;;;3.97
24740;BMP280;45234;48.148;17.128;2023-03-01T04:30:55;100929.47;;;4.00
24740;BMP280;45234;48.148;17.128;2023-03-01T04:33:24;100931.91;;;4.02
24740;BMP280;45234;48.148;17.128;2023-03-01T04:35:52;100931.69;;;4.05
24740;BMP280;45234;48.148;17.128;2023-03-01T04:38:19;100926.56;;;4.05
24740;BMP280;45234;48.148;17.128;2023-03-01T04:40:47;100921.78;;;4.00
24740;BMP280;45234;48.148;17.128;2023-03-01T04:43:15;100924.91;;;4.04
24740;BMP280;45234;48.148;17.128;2023-03-01T04:45:44;100921.75;;;4.11
24740;BMP280;45234;48.148;17.128;2023-03-01T04:48:11;100926.75;;;4.13
24740;BMP280;45234;48.148;17.128;2023-03-01T04:50:38;100921.19;;;4.08
24740;BMP280;45234;48.148;17.128;2023-03-01T04:53:05;100924.91;;;4.15
24740;BMP280;45234;48.148;17.128;2023-03-01T04:55:34;100934.28;;;4.26
24740;BMP280;45234;48.148;17.128;2023-03-01T04:58:01;100934.91;;;4.39
24740;BMP280;45234;48.148;17.128;2023-03-01T05:00:28;100930.44;;;4.41
24740;BMP280;45234;48.148;17.128;2023-03-01T05:02:58;100940.34;;;4.45
24740;BMP280;45234;48.148;17.128;2023-03-01T05:05:30;100936.16;;;4.44
24740;BMP280;45234;48.148;17.128;2023-03-01T05:08:00;100932.41;;;4.48
24740;BMP280;45234;48.148;17.128;2023-03-01T05:10:28;100928.38;;;4.56
24740;BMP280;45234;48.148;17.128;2023-03-01T05:12:56;100932.63;;;4.45
24740;BMP280;45234;48.148;17.128;2023-03-01T05:15:24;100922.94;;;4.49
24740;BMP280;45234;48.148;17.128;2023-03-01T05:17:59;100929.16;;;4.46
24740;BMP280;45234;48.148;17.128;2023-03-01T05:20:29;100929.84;;;4.48
24740;BMP280;45234;48.148;17.128;2023-03-01T05:23:00;100919.81;;;4.45
24740;BMP280;45234;48.148;17.128;2023-03-01T05:25:27;100924.72;;;4.48
24740;BMP280;45234;48.148;17.128;2023-03-01T05:28:03;100920.59;;;4.36
24740;BMP280;45234;48.148;17.128;2023-03-01T05:30:34;100915.59;;;4.44
24740;BMP280;45234;48.148;17.128;2023-03-01T05:33:02;100916.88;;;4.50
24740;BMP280;45234;48.148;17.128;2023-03-01T05:35:29;100931.34;;;4.51
24740;BMP280;45234;48.148;17.128;2023-03-01T05:37:56;100931.59;;;4.48
24740;BMP280;45234;48.148;17.128;2023-03-01T05:40:23;100937.41;;;4.50
24740;BMP280;45234;48.148;17.128;2023-03-01T05:42:53;100933.78;;;4.53
24740;BMP280;45234;48.148;17.128;2023-03-01T05:45:21;100936.13;;;4.65
24740;BMP280;45234;48.148;17.128;2023-03-01T05:47:49;100937.72;;;4.57
24740;BMP280;45234;48.148;17.128;2023-03-01T05:50:23;100938.66;;;4.56
24740;BMP280;45234;48.148;17.128;2023-03-01T05:55:26;100946.28;;;4.67
24740;BMP280;45234;48.148;17.128;2023-03-01T05:57:57;100947.22;;;4.66
24740;BMP280;45234;48.148;17.128;2023-03-01T06:00:25;100951.91;;;4.82
24740;BMP280;45234;48.148;17.128;2023-03-01T06:02:54;100949.91;;;4.95
24740;BMP280;45234;48.148;17.128;2023-03-01T06:05:22;100955.22;;;4.93
24740;BMP280;45234;48.148;17.128;2023-03-01T06:07:49;100954.66;;;4.90
24740;BMP280;45234;48.148;17.128;2023-03-01T06:10:17;100959.53;;;4.93
24740;BMP280;45234;48.148;17.128;2023-03-01T06:12:46;100964.69;;;4.93
24740;BMP280;45234;48.148;17.128;2023-03-01T06:15:16;100963.88;;;4.92
24740;BMP280;45234;48.148;17.128;2023-03-01T06:17:45;100957.50;;;4.96
24740;BMP280;45234;48.148;17.128;2023-03-01T06:20:19;100948.50;;;5.11
24740;BMP280;45234;48.148;17.128;2023-03-01T06:22:47;100958.97;;;5.29
24740;BMP280;45234;48.148;17.128;2023-03-01T06:25:16;100951.81;;;5.33
24740;BMP280;45234;48.148;17.128;2023-03-01T06:27:44;100959.09;;;5.28
24740;BMP280;45234;48.148;17.128;2023-03-01T06:30:14;100973.19;;;5.24
24740;BMP280;45234;48.148;17.128;2023-03-01T06:32:41;100968.72;;;5.26
24740;BMP280;45234;48.148;17.128;2023-03-01T06:35:10;100971.78;;;5.20
24740;BMP280;45234;48.148;17.128;2023-03-01T06:37:38;100977.69;;;5.01
24740;BMP280;45234;48.148;17.128;2023-03-01T06:40:07;100982.50;;;4.94
24740;BMP280;45234;48.148;17.128;2023-03-01T06:42:35;100986.38;;;5.09
24740;BMP280;45234;48.148;17.128;2023-03-01T06:45:05;100981.84;;;5.32
24740;BMP280;45234;48.148;17.128;2023-03-01T06:47:33;100962.66;;;5.36
24740;BMP280;45234;48.148;17.128;2023-03-01T06:50:01;100968.88;;;5.34
24740;BMP280;45234;48.148;17.128;2023-03-01T06:52:28;100971.84;;;5.39
24740;BMP280;45234;48.148;17.128;2023-03-01T06:54:56;100967.78;;;5.36
24740;BMP280;45234;48.148;17.128;2023-03-01T06:57:22;100969.69;;;5.44
24740;BMP280;45234;48.148;17.128;2023-03-01T06:59:49;100972.94;;;5.46
24740;BMP280;45234;48.148;17.128;2023-03-01T07:02:16;100970.66;;;5.62
24740;BMP280;45234;48.148;17.128;2023-03-01T07:04:43;100966.09;;;5.66
24740;BMP280;45234;48.148;17.128;2023-03-01T07:07:11;100970.44;;;5.65
24740;BMP280;45234;48.148;17.128;2023-03-01T07:09:40;100968.38;;;5.59
24740;BMP280;45234;48.148;17.128;2023-03-01T07:12:07;100971.50;;;5.72
24740;BMP280;45234;48.148;17.128;2023-03-01T07:14:34;100964.88;;;5.80
24740;BMP280;45234;48.148;17.128;2023-03-01T07:17:01;100962.97;;;5.82
24740;BMP280;45234;48.148;17.128;2023-03-01T07:19:29;100965.69;;;5.90
24740;BMP280;45234;48.148;17.128;2023-03-01T07:21:57;100964.31;;;6.05
24740;BMP280;45234;48.148;17.128;2023-03-01T07:24:24;100968.44;;;6.17
24740;BMP280;45234;48.148;17.128;2023-03-01T07:26:52;100967.19;;;6.02
24740;BMP280;45234;48.148;17.128;2023-03-01T07:29:20;100968.78;;;6.22
24740;BMP280;45234;48.148;17.128;2023-03-01T07:31:46;100963.13;;;6.28
24740;BMP280;45234;48.148;17.128;2023-03-01T07:34:13;100968.91;;;6.50
24740;BMP280;45234;48.148;17.128;2023-03-01T07:36:40;100963.75;;;6.50
24740;BMP280;45234;48.148;17.128;2023-03-01T07:39:10;100959.47;;;6.68
24740;BMP280;45234;48.148;17.128;2023-03-01T07:41:37;100966.31;;;6.96
24740;BMP280;45234;48.148;17.128;2023-03-01T07:44:04;100969.16;;;6.93
24740;BMP280;45234;48.148;17.128;2023-03-01T07:46:31;100962.81;;;6.78
24740;BMP280;45234;48.148;17.128;2023-03-01T07:48:58;100956.91;;;6.68
24740;BMP280;45234;48.148;17.128;2023-03-01T07:51:25;100952.25;;;6.81
24740;BMP280;45234;48.148;17.128;2023-03-01T07:53:52;100954.84;;;6.99
24740;BMP280;45234;48.148;17.128;2023-03-01T07:56:19;100960.63;;;7.11
24740;BMP280;45234;48.148;17.128;2023-03-01T07:58:48;100965.91;;;7.19
24740;BMP280;45234;48.148;17.128;2023-03-01T08:01:19;100971.16;;;7.27
24740;BMP280;45234;48.148;17.128;2023-03-01T08:03:46;100965.44;;;7.06
24740;BMP280;45234;48.148;17.128;2023-03-01T08:06:15;100965.44;;;7.06
24740;BMP280;45234;48.148;17.128;2023-03-01T08:08:43;100961.78;;;7.26
24740;BMP280;45234;48.148;17.128;2023-03-01T08:11:12;100962.66;;;7.44
24740;BMP280;45234;48.148;17.128;2023-03-01T08:13:39;100961.53;;;7.64
24740;BMP280;45234;48.148;17.128;2023-03-01T08:16:12;100971.97;;;7.81
24740;BMP280;45234;48.148;17.128;2023-03-01T08:18:40;100970.72;;;7.85
24740;BMP280;45234;48.148;17.128;2023-03-01T08:21:26;100967.78;;;7.80
24740;BMP280;45234;48.148;17.128;2023-03-01T08:23:53;100970.72;;;8.03
24740;BMP280;45234;48.148;17.128;2023-03-01T08:26:21;100964.16;;;8.08
24740;BMP280;45234;48.148;17.128;2023-03-01T08:28:48;100968.94;;;8.21
24740;BMP280;45234;48.148;17.128;2023-03-01T08:33:46;100964.38;;;8.41
24740;BMP280;45234;48.148;17.128;2023-03-01T08:36:18;100969.28;;;8.60
24740;BMP280;45234;48.148;17.128;2023-03-01T08:38:47;100966.09;;;8.66
24740;BMP280;45234;48.148;17.128;2023-03-01T08:41:14;100968.38;;;8.69
24740;BMP280;45234;48.148;17.128;2023-03-01T08:43:42;100953.56;;;8.79
24740;BMP280;45234;48.148;17.128;2023-03-01T08:46:09;100956.19;;;8.95
24740;BMP280;45234;48.148;17.128;2023-03-01T08:48:36;100954.97;;;9.24
24740;BMP280;45234;48.148;17.128;2023-03-01T08:51:18;100954.84;;;9.25
24740;BMP280;45234;48.148;17.128;2023-03-01T08:53:46;100956.00;;;9.72
24740;BMP280;45234;48.148;17.128;2023-03-01T08:56:13;100950.81;;;9.72
24740;BMP280;45234;48.148;17.128;2023-03-01T08:58:43;100943.88;;;9.48
24740;BMP280;45234;48.148;17.128;2023-03-01T09:01:11;100942.72;;;9.26
24740;BMP280;45234;48.148;17.128;2023-03-01T09:03:39;100937.22;;;9.29
24740;BMP280;45234;48.148;17.128;2023-03-01T09:06:07;100939.66;;;9.55
24740;BMP280;45234;48.148;17.128;2023-03-01T09:08:46;100935.28;;;9.55
24740;BMP280;45234;48.148;17.128;2023-03-01T09:11:15;100926.56;;;9.56
24740;BMP280;45234;48.148;17.128;2023-03-01T09:13:44;100922.81;;;9.75
24740;BMP280;45234;48.148;17.128;2023-03-01T09:16:13;100926.53;;;9.89
24740;BMP280;45234;48.148;17.128;2023-03-01T09:18:40;100925.56;;;9.82
24740;BMP280;45234;48.148;17.128;2023-03-01T09:21:10;100926.22;;;9.84
24740;BMP280;45234;48.148;17.128;2023-03-01T09:23:39;100925.25;;;9.85
24740;BMP280;45234;48.148;17.128;2023-03-01T09:26:11;100927.84;;;9.85
24740;BMP280;45234;48.148;17.128;2023-03-01T09:28:39;100923.94;;;9.81
24740;BMP280;45234;48.148;17.128;2023-03-01T09:31:07;100920.22;;;9.75
24740;BMP280;45234;48.148;17.128;2023-03-01T09:33:36;100916.50;;;9.53
24740;BMP280;45234;48.148;17.128;2023-03-01T09:36:05;100920.59;;;9.48
24740;BMP280;45234;48.148;17.128;2023-03-01T09:38:33;100907.78;;;9.54
24740;BMP280;45234;48.148;17.128;2023-03-01T09:41:01;100904.91;;;9.49
24740;BMP280;45234;48.148;17.128;2023-03-01T09:43:51;100909.06;;;9.42
24740;BMP280;45234;48.148;17.128;2023-03-01T09:46:22;100901.78;;;9.21
24740;BMP280;45234;48.148;17.128;2023-03-01T09:48:56;100889.00;;;9.52
24740;BMP280;45234;48.148;17.128;2023-03-01T09:51:32;100895.81;;;9.70
24740;BMP280;45234;48.148;17.128;2023-03-01T09:54:00;100890.97;;;9.67
24740;BMP280;45234;48.148;17.128;2023-03-01T09:56:52;100884.81;;;9.51
24740;BMP280;45234;48.148;17.128;2023-03-01T09:59:28;100877.41;;;9.48
24740;BMP280;45234;48.148;17.128;2023-03-01T10:02:00;100871.38;;;9.32
24740;BMP280;45234;48.148;17.128;2023-03-01T10:04:49;100878.66;;;9.04
24740;BMP280;45234;48.148;17.128;2023-03-01T10:10:08;100870.41;;;9.08
24740;BMP280;45234;48.148;17.128;2023-03-01T10:12:39;100862.78;;;8.82
24740;BMP280;45234;48.148;17.128;2023-03-01T10:15:18;100861.31;;;8.88
24740;BMP280;45234;48.148;17.128;2023-03-01T10:18:11;100863.59;;;8.99
24740;BMP280;45234;48.148;17.128;2023-03-01T10:21:17;100859.56;;;9.05
24740;BMP280;45234;48.148;17.128;2023-03-01T10:23:44;100859.94;;;9.26
24740;BMP280;45234;48.148;17.128;2023-03-01T10:26:39;100856.19;;;9.12
24740;BMP280;45234;48.148;17.128;2023-03-01T10:29:12;100855.06;;;9.15
24740;BMP280;45234;48.148;17.128;2023-03-01T10:31:51;100855.56;;;9.18
24740;BMP280;45234;48.148;17.128;2023-03-01T10:34:33;100850.53;;;9.17
24740;BMP280;45234;48.148;17.128;2023-03-01T10:37:19;100848.59;;;9.27
24740;BMP280;45234;48.148;17.128;2023-03-01T10:42:33;100836.78;;;9.41
24740;BMP280;45234;48.148;17.128;2023-03-01T10:50:32;100822.84;;;9.50
24740;BMP280;45234;48.148;17.128;2023-03-01T10:53:04;100816.25;;;9.39
24740;BMP280;45234;48.148;17.128;2023-03-01T10:55:34;100814.28;;;9.41
24740;BMP280;45234;48.148;17.128;2023-03-01T10:58:21;100806.25;;;9.36
24740;BMP280;45234;48.148;17.128;2023-03-01T11:00:57;100804.31;;;9.30
24740;BMP280;45234;48.148;17.128;2023-03-01T11:03:37;100800.09;;;9.29
24740;BMP280;45234;48.148;17.128;2023-03-01T11:06:19;100796.88;;;9.35
24740;BMP280;45234;48.148;17.128;2023-03-01T11:08:51;100798.78;;;9.33
24740;BMP280;45234;48.148;17.128;2023-03-01T11:11:28;100803.78;;;9.43
24740;BMP280;45234;48.148;17.128;2023-03-01T11:14:21;100800.09;;;9.45
24740;BMP280;45234;48.148;17.128;2023-03-01T11:17:11;100793.13;;;9.46
24740;BMP280;45234;48.148;17.128;2023-03-01T11:19:39;100794.19;;;9.68
24740;BMP280;45234;48.148;17.128;2023-03-01T11:22:20;100798.38;;;9.77
24740;BMP280;45234;48.148;17.128;2023-03-01T11:24:51;100792.41;;;10.15
24740;BMP280;45234;48.148;17.128;2023-03-01T11:27:38;100783.47;;;10.49
24740;BMP280;45234;48.148;17.128;2023-03-01T11:30:24;100782.88;;;10.61
24740;BMP280;45234;48.148;17.128;2023-03-01T11:33:13;100775.59;;;10.65
24740;BMP280;45234;48.148;17.128;2023-03-01T11:36:00;100784.94;;;10.74
24740;BMP280;45234;48.148;17.128;2023-03-01T11:38:32;100786.53;;;10.75
24740;BMP280;45234;48.148;17.128;2023-03-01T11:41:16;100780.00;;;10.79
24740;BMP280;45234;48.148;17.128;2023-03-01T11:43:57;100780.63;;;10.81
24740;BMP280;45234;48.148;17.128;2023-03-01T11:49:38;100779.38;;;11.15
24740;BMP280;45234;48.148;17.128;2023-03-01T11:52:35;100778.50;;;11.08
24740;BMP280;45234;48.148;17.128;2023-03-01T11:57:57;100790.22;;;11.18
24740;BMP280;45234;48.148;17.128;2023-03-01T12:06:00;100785.31;;;11.23
24740;BMP280;45234;48.148;17.128;2023-03-01T12:17:44;100769.03;;;11.44
24740;BMP280;45234;48.148;17.128;2023-03-01T12:26:02;100763.56;;;11.24
24740;BMP280;45234;48.148;17.128;2023-03-01T12:37:52;100748.59;;;11.12
24740;BMP280;45234;48.148;17.128;2023-03-01T12:46:18;100754.19;;;11.38
24740;BMP280;45234;48.148;17.128;2023-03-01T12:51:31;100745.84;;;11.57
24740;BMP280;45234;48.148;17.128;2023-03-01T12:54:46;100748.00;;;11.69
24740;BMP280;45234;48.148;17.128;2023-03-01T12:56:48;100753.97;;;11.84
24740;BMP280;45234;48.148;17.128;2023-03-01T12:59:29;100740.34;;;11.82
24740;BMP280;45234;48.148;17.128;2023-03-01T13:02:38;100740.22;;;11.69
24740;BMP280;45234;48.148;17.128;2023-03-01T13:08:20;100739.84;;;11.42
24740;BMP280;45234;48.148;17.128;2023-03-01T13:11:00;100735.56;;;11.49
24740;BMP280;45234;48.148;17.128;2023-03-01T13:13:29;100733.22;;;11.54
24740;BMP280;45234;48.148;17.128;2023-03-01T13:15:57;100738.41;;;11.54
24740;BMP280;45234;48.148;17.128;2023-03-01T13:20:58;100727.75;;;11.49
24740;BMP280;45234;48.148;17.128;2023-03-01T13:23:32;100730.00;;;11.52
24740;BMP280;45234;48.148;17.128;2023-03-01T13:26:16;100731.16;;;11.50
24740;BMP280;45234;48.148;17.128;2023-03-01T13:28:49;100728.66;;;11.42
24740;BMP280;45234;48.148;17.128;2023-03-01T13:44:33;100719.59;;;10.93
24740;BMP280;45234;48.148;17.128;2023-03-01T13:47:07;100712.03;;;11.07
24740;BMP280;45234;48.148;17.128;2023-03-01T13:49:58;100703.78;;;11.18
24740;BMP280;45234;48.148;17.128;2023-03-01T13:52:44;100691.03;;;10.79
24740;BMP280;45234;48.148;17.128;2023-03-01T13:57:50;100685.38;;;10.38
24740;BMP280;45234;48.148;17.128;2023-03-01T14:00:31;100689.81;;;10.29
24740;BMP280;45234;48.148;17.128;2023-03-01T14:03:16;100675.13;;;10.21
24740;BMP280;45234;48.148;17.128;2023-03-01T14:06:06;100668.84;;;9.93
24740;BMP280;45234;48.148;17.128;2023-03-01T14:08:41;100663.75;;;9.77
24740;BMP280;45234;48.148;17.128;2023-03-01T14:19:28;100668.56;;;9.57
24740;BMP280;45234;48.148;17.128;2023-03-01T14:22:22;100661.53;;;9.66
24740;BMP280;45234;48.148;17.128;2023-03-01T14:24:56;100659.94;;;9.65
24740;BMP280;45234;48.148;17.128;2023-03-01T14:27:26;100650.28;;;9.58
24740;BMP280;45234;48.148;17.128;2023-03-01T14:30:00;100648.00;;;9.55
24740;BMP280;45234;48.148;17.128;2023-03-01T14:32:30;100648.97;;;9.54
24740;BMP280;45234;48.148;17.128;2023-03-01T14:34:59;100639.50;;;9.47
24740;BMP280;45234;48.148;17.128;2023-03-01T14:37:29;100639.16;;;9.42
24740;BMP280;45234;48.148;17.128;2023-03-01T14:39:58;100632.03;;;9.44
24740;BMP280;45234;48.148;17.128;2023-03-01T14:42:34;100638.88;;;9.37
24740;BMP280;45234;48.148;17.128;2023-03-01T14:45:02;100638.72;;;9.30
24740;BMP280;45234;48.148;17.128;2023-03-01T14:47:32;100626.16;;;9.19
24740;BMP280;45234;48.148;17.128;2023-03-01T14:52:46;100635.69;;;9.18
24740;BMP280;45234;48.148;17.128;2023-03-01T14:55:25;100642.31;;;9.21
24740;BMP280;45234;48.148;17.128;2023-03-01T14:57:53;100637.28;;;9.27
24740;BMP280;45234;48.148;17.128;2023-03-01T15:00:32;100626.50;;;9.16
24740;BMP280;45234;48.148;17.128;2023-03-01T15:03:22;100627.94;;;9.18
24740;BMP280;45234;48.148;17.128;2023-03-01T15:05:51;100627.09;;;9.26
24740;BMP280;45234;48.148;17.128;2023-03-01T15:08:21;100619.00;;;9.29
24740;BMP280;45234;48.148;17.128;2023-03-01T15:11:22;100617.13;;;9.15
24740;BMP280;45234;48.148;17.128;2023-03-01T15:13:53;100613.66;;;9.22
24740;BMP280;45234;48.148;17.128;2023-03-01T15:16:27;100612.22;;;9.28
24740;BMP280;45234;48.148;17.128;2023-03-01T15:19:01;100615.16;;;9.25
24740;BMP280;45234;48.148;17.128;2023-03-01T15:21:36;100611.09;;;9.31
24740;BMP280;45234;48.148;17.128;2023-03-01T15:26:59;100620.34;;;9.17
24740;BMP280;45234;48.148;17.128;2023-03-01T15:29:34;100615.66;;;9.12
24740;BMP280;45234;48.148;17.128;2023-03-01T15:32:33;100611.97;;;9.07
24740;BMP280;45234;48.148;17.128;2023-03-01T15:35:09;100610.31;;;9.14
24740;BMP280;45234;48.148;17.128;2023-03-01T15:37:49;100610.81;;;9.09
24740;BMP280;45234;48.148;17.128;2023-03-01T15:40:28;100615.84;;;9.11
24740;BMP280;45234;48.148;17.128;2023-03-01T15:43:00;100614.66;;;9.13
24740;BMP280;45234;48.148;17.128;2023-03-01T15:45:29;100607.09;;;9.12
24740;BMP280;45234;48.148;17.128;2023-03-01T15:47:58;100605.16;;;9.14
24740;BMP280;45234;48.148;17.128;2023-03-01T15:50:31;100613.84;;;9.13
24740;BMP280;45234;48.148;17.128;2023-03-01T15:53:07;100609.84;;;9.10
24740;BMP280;45234;48.148;17.128;2023-03-01T15:55:34;100606.47;;;9.10
24740;BMP280;45234;48.148;17.128;2023-03-01T15:58:12;100599.03;;;9.07